Time;durP1;ratioP1;P1;durP2;ratioP2;P2;SDS_P1;SDS_P2;PMS_P1;PMS_P2;Temp;Humidity;BMP_temperature;BMP_pressure;BME280_temperature;BME280_humidity;BME280_pressure;Samples;Min_cycle;Max_cycle;Signal;HPM_P1;HPM_P2
2023/04/15 00:01:59;;;;;;;10.43;8.00;;;7.80;99.90;;;;;;5053528;28;20429;-62
2023/04/15 00:04:26;;;;;;;12.73;8.13;;;7.80;99.90;;;;;;5053285;28;20488;-64
2023/04/15 00:06:53;;;;;;;12.32;8.88;;;7.80;95.20;;;;;;5053117;28;20892;-63
2023/04/15 00:09:21;;;;;;;11.77;7.78;;;7.80;76.70;;;;;;5052573;28;20450;-62
2023/04/15 00:11:47;;;;;;;11.35;7.85;;;7.90;16.10;;;;;;5049531;28;20409;-63
2023/04/15 00:14:16;;;;;;;10.90;7.65;;;7.90;4.60;;;;;;5052819;28;20738;-63
2023/04/15 00:16:42;;;;;;;11.57;8.48;;;7.90;4.70;;;;;;5049046;28;20904;-62
2023/04/15 00:19:09;;;;;;;11.45;8.23;;;7.90;1.00;;;;;;5053091;28;20417;-63
2023/04/15 00:21:36;;;;;;;13.07;8.13;;;7.90;1.00;;;;;;5054858;28;20459;-63
2023/04/15 00:24:02;;;;;;;12.00;8.50;;;7.90;1.00;;;;;;5049661;28;20548;-63
2023/04/15 00:26:29;;;;;;;12.13;8.40;;;7.80;1.00;;;;;;5050607;28;20413;-63
2023/04/15 00:28:55;;;;;;;11.93;7.88;;;7.80;1.00;;;;;;5052734;28;20463;-63
2023/04/15 00:31:24;;;;;;;11.50;7.45;;;7.80;1.00;;;;;;5048636;28;20907;-63
2023/04/15 00:33:51;;;;;;;10.50;7.03;;;7.90;1.00;;;;;;5052629;28;20439;-63
2023/04/15 00:36:18;;;;;;;11.03;8.00;;;7.80;1.00;;;;;;5049249;28;20408;-62
2023/04/15 00:38:44;;;;;;;16.80;12.57;;;7.60;1.00;;;;;;5052921;28;20802;-64
2023/04/15 00:41:12;;;;;;;14.10;9.00;;;7.70;1.00;;;;;;5048582;28;20425;-63
2023/04/15 00:43:38;;;;;;;13.20;9.30;;;7.60;1.00;;;;;;5052755;28;20435;-63
2023/04/15 00:46:06;;;;;;;13.13;9.65;;;7.50;7.10;;;;;;5047843;28;20430;-61
2023/04/15 00:48:35;;;;;;;12.10;9.80;;;7.60;32.60;;;;;;5052402;28;20410;-63
2023/04/15 00:51:01;;;;;;;12.60;9.13;;;7.40;99.90;;;;;;5052579;28;20502;-62
2023/04/15 00:53:28;;;;;;;14.63;9.77;;;7.40;99.90;;;;;;5052625;28;20405;-63
2023/04/15 00:55:55;;;;;;;15.13;10.70;;;7.40;99.90;;;;;;5047708;28;20421;-63
2023/04/15 00:58:22;;;;;;;14.13;10.82;;;7.30;99.90;;;;;;5052318;28;20417;-63
2023/04/15 01:00:53;;;;;;;14.02;10.73;;;7.10;1.00;;;;;;5047956;28;20429;-63
2023/04/15 01:03:19;;;;;;;14.88;11.50;;;7.10;99.90;;;;;;5052063;28;20931;-63
2023/04/15 01:05:47;;;;;;;16.92;12.13;;;7.00;1.00;;;;;;5052607;28;20413;-63
2023/04/15 01:08:14;;;;;;;15.60;11.75;;;6.70;1.00;;;;;;5052165;28;20412;-63
2023/04/15 01:10:41;;;;;;;17.08;12.63;;;6.60;1.00;;;;;;5047048;28;20827;-64
2023/04/15 01:13:08;;;;;;;18.70;13.13;;;6.60;99.90;;;;;;5052300;28;20472;-63
2023/04/15 01:15:36;;;;;;;18.75;13.60;;;6.50;99.90;;;;;;5047971;28;20421;-64
2023/04/15 01:18:03;;;;;;;15.77;12.65;;;6.50;1.00;;;;;;5052287;28;20483;-63
2023/04/15 01:20:29;;;;;;;16.38;13.02;;;6.50;1.00;;;;;;5052855;28;20482;-63
2023/04/15 01:22:57;;;;;;;17.65;13.20;;;6.60;1.00;;;;;;5052532;28;20843;-63
2023/04/15 01:25:32;;;;;;;18.58;13.30;;;6.50;1.00;;;;;;5049268;28;20421;-62
2023/04/15 01:27:58;;;;;;;18.58;13.52;;;6.40;1.00;;;;;;5048598;28;20413;-62
2023/04/15 01:30:25;;;;;;;23.00;14.43;;;6.40;13.60;;;;;;5047806;28;20512;-63
2023/04/15 01:32:52;;;;;;;20.10;13.50;;;6.10;69.80;;;;;;5052090;28;20409;-62
2023/04/15 01:35:20;;;;;;;18.90;13.98;;;6.30;42.50;;;;;;5051930;28;20409;-63
2023/04/15 01:37:47;;;;;;;16.90;12.98;;;6.30;32.90;;;;;;5051412;28;20452;-63
2023/04/15 01:40:14;;;;;;;17.57;13.27;;;6.40;33.60;;;;;;5047508;28;20514;-63
2023/04/15 01:42:42;;;;;;;17.45;13.55;;;6.50;29.60;;;;;;5051367;28;20831;-63
2023/04/15 01:45:09;;;;;;;18.13;13.05;;;6.60;24.00;;;;;;5043600;28;20425;-63
2023/04/15 01:47:36;;;;;;;21.95;13.68;;;6.70;12.40;;;;;;5050812;28;20413;-64
2023/04/15 01:50:03;;;;;;;19.27;14.18;;;6.70;11.60;;;;;;5051384;28;20425;-62
2023/04/15 01:52:31;;;;;;;19.23;13.82;;;6.70;6.40;;;;;;5051425;28;20781;-63
2023/04/15 01:54:57;;;;;;;19.50;14.20;;;6.60;4.00;;;;;;5047206;28;20505;-62
2023/04/15 01:57:24;;;;;;;19.25;14.75;;;6.40;9.00;;;;;;5047699;28;20405;-63
2023/04/15 01:59:52;;;;;;;16.73;13.77;;;6.40;10.90;;;;;;5046685;28;20421;-64
2023/04/15 02:02:18;;;;;;;18.27;13.43;;;6.40;17.10;;;;;;5044203;28;20425;-64
2023/04/15 02:04:45;;;;;;;22.02;14.18;;;6.50;16.30;;;;;;5051393;28;20413;-62
2023/04/15 02:07:11;;;;;;;16.77;12.93;;;6.60;6.60;;;;;;5046534;28;20417;-63
2023/04/15 02:09:38;;;;;;;19.55;14.48;;;6.60;6.30;;;;;;5045841;28;20420;-64
2023/04/15 02:12:05;;;;;;;18.25;13.02;;;6.60;1.00;;;;;;5048462;28;20942;-63
2023/04/15 02:14:32;;;;;;;18.27;14.03;;;6.60;1.00;;;;;;5043151;28;20500;-63
2023/04/15 02:17:05;;;;;;;19.75;14.80;;;6.60;1.00;;;;;;5050584;28;20421;-63
2023/04/15 02:19:32;;;;;;;19.57;15.13;;;6.60;1.00;;;;;;5051399;28;20788;-63
2023/04/15 02:22:00;;;;;;;20.08;14.50;;;6.30;1.00;;;;;;5051409;28;20977;-63
2023/04/15 02:24:27;;;;;;;18.42;14.77;;;6.30;1.00;;;;;;5047259;28;20426;-65
2023/04/15 02:26:54;;;;;;;17.33;14.23;;;6.40;1.00;;;;;;5047581;28;20413;-63
2023/04/15 02:29:21;;;;;;;19.50;15.88;;;6.30;1.00;;;;;;5050165;28;20425;-62
2023/04/15 02:31:48;;;;;;;21.90;16.17;;;5.90;11.50;;;;;;5047113;28;20471;-62
2023/04/15 02:34:16;;;;;;;20.98;16.60;;;5.30;85.70;;;;;;5046504;28;20424;-64
2023/04/15 02:36:43;;;;;;;20.85;16.17;;;5.20;99.90;;;;;;5050472;28;20423;-64
2023/04/15 02:39:10;;;;;;;21.95;14.85;;;5.10;99.90;;;;;;5049279;28;20421;-64
2023/04/15 02:41:36;;;;;;;20.48;15.18;;;4.40;99.90;;;;;;5045377;28;20456;-63
2023/04/15 02:44:03;;;;;;;21.38;15.48;;;5.30;99.90;;;;;;5046421;28;20421;-64
2023/04/15 02:46:29;;;;;;;18.60;15.32;;;5.40;99.90;;;;;;5046962;28;20838;-63
2023/04/15 02:48:58;;;;;;;19.90;15.30;;;5.40;99.90;;;;;;5047486;28;20471;-63
2023/04/15 02:51:30;;;;;;;25.52;16.42;;;5.50;99.90;;;;;;5053782;28;20417;-63
2023/04/15 02:53:56;;;;;;;20.57;16.47;;;5.40;99.90;;;;;;5052813;28;21031;-63
2023/04/15 02:56:23;;;;;;;19.73;15.05;;;5.50;99.90;;;;;;5054495;28;20413;-63
2023/04/15 02:58:50;;;;;;;21.13;14.93;;;5.60;99.90;;;;;;5055634;28;20980;-63
2023/04/15 03:01:16;;;;;;;19.70;15.07;;;5.60;99.90;;;;;;5051304;28;20780;-63
2023/04/15 03:03:43;;;;;;;24.13;16.50;;;5.70;99.90;;;;;;5050901;28;20424;-64
2023/04/15 03:06:10;;;;;;;22.50;17.08;;;5.50;99.30;;;;;;5050066;28;20459;-64
2023/04/15 03:08:38;;;;;;;22.42;17.13;;;5.30;99.90;;;;;;5050586;28;20799;-64
2023/04/15 03:11:06;;;;;;;23.55;18.33;;;5.00;99.90;;;;;;5046929;28;20455;-62
2023/04/15 03:13:33;;;;;;;24.83;18.48;;;4.90;99.90;;;;;;5047776;28;20493;-63
2023/04/15 03:15:59;;;;;;;24.13;19.50;;;4.90;99.90;;;;;;5049958;28;20475;-63
2023/04/15 03:18:27;;;;;;;24.30;19.83;;;4.90;99.90;;;;;;5055679;28;20409;-63
2023/04/15 03:20:54;;;;;;;24.30;19.35;;;4.90;99.90;;;;;;5055963;28;20420;-63
2023/04/15 03:23:20;;;;;;;26.20;19.30;;;4.80;99.90;;;;;;5054323;28;20584;-64
2023/04/15 03:25:48;;;;;;;24.48;19.77;;;4.80;99.90;;;;;;5049326;28;20910;-63
2023/04/15 03:28:15;;;;;;;27.30;19.98;;;4.90;99.90;;;;;;5053990;28;20443;-63
2023/04/15 03:30:42;;;;;;;26.52;19.85;;;4.90;99.90;;;;;;5049457;28;20812;-63
2023/04/15 03:33:08;;;;;;;25.55;19.33;;;4.90;99.90;;;;;;5054089;28;20467;-64
2023/04/15 03:35:35;;;;;;;24.40;19.58;;;4.80;99.90;;;;;;5054239;28;20417;-64
2023/04/15 03:38:02;;;;;;;25.38;19.98;;;4.80;99.90;;;;;;5053612;28;20891;-63
2023/04/15 03:40:28;;;;;;;23.83;19.53;;;4.90;99.90;;;;;;5049975;28;20842;-64
2023/04/15 03:42:56;;;;;;;25.63;20.02;;;4.90;99.90;;;;;;5053925;28;20424;-62
2023/04/15 03:45:23;;;;;;;26.95;19.98;;;4.90;99.90;;;;;;5049585;28;20421;-64
2023/04/15 03:47:50;;;;;;;26.75;20.33;;;4.80;99.90;;;;;;5053355;28;20475;-63
2023/04/15 03:50:17;;;;;;;28.52;21.10;;;4.80;99.90;;;;;;5054029;28;20413;-64
2023/04/15 03:52:44;;;;;;;24.67;20.63;;;4.80;99.90;;;;;;5053677;28;20467;-64
2023/04/15 03:55:11;;;;;;;28.35;21.25;;;4.70;99.90;;;;;;5049157;28;20471;-64
2023/04/15 03:57:38;;;;;;;27.88;22.15;;;4.80;99.90;;;;;;5053336;28;20409;-64
2023/04/15 04:00:09;;;;;;;26.33;20.48;;;4.70;99.90;;;;;;5048813;28;20421;-64
2023/04/15 04:02:36;;;;;;;28.95;21.48;;;4.70;99.90;;;;;;5053558;28;20443;-62
2023/04/15 04:05:02;;;;;;;26.38;21.15;;;4.70;99.90;;;;;;5053574;28;20467;-63
2023/04/15 04:07:29;;;;;;;26.90;20.60;;;4.70;99.90;;;;;;5053274;28;20771;-63
2023/04/15 04:09:58;;;;;;;28.20;20.83;;;4.70;99.90;;;;;;5049074;28;20442;-64
2023/04/15 04:12:24;;;;;;;27.35;21.15;;;4.70;99.90;;;;;;5049501;28;20471;-64
2023/04/15 04:14:51;;;;;;;26.27;20.47;;;4.70;99.90;;;;;;5048813;28;20423;-64
2023/04/15 04:17:19;;;;;;;28.08;21.08;;;4.70;99.90;;;;;;5053142;28;20467;-64
2023/04/15 04:19:46;;;;;;;26.55;21.40;;;4.60;99.90;;;;;;5053119;28;20973;-64
2023/04/15 04:22:12;;;;;;;26.83;20.92;;;4.60;99.90;;;;;;5053089;28;20413;-63
2023/04/15 04:24:39;;;;;;;26.90;21.07;;;4.60;99.90;;;;;;5045820;28;20427;-64
2023/04/15 04:27:06;;;;;;;27.23;20.83;;;4.60;99.90;;;;;;5052971;28;21261;-64
2023/04/15 04:29:32;;;;;;;28.52;21.17;;;4.60;99.90;;;;;;5048449;28;20423;-64
2023/04/15 04:31:59;;;;;;;27.23;20.92;;;4.50;99.90;;;;;;5053323;28;20810;-63
2023/04/15 04:34:27;;;;;;;28.55;22.10;;;4.50;99.90;;;;;;5053370;28;20503;-64
2023/04/15 04:36:54;;;;;;;29.48;21.83;;;4.50;99.90;;;;;;5046898;28;20443;-63
2023/04/15 04:39:20;;;;;;;30.15;23.52;;;4.50;99.90;;;;;;5051900;28;20421;-63
2023/04/15 04:41:47;;;;;;;27.67;21.52;;;4.50;99.90;;;;;;5049022;28;20413;-63
2023/04/15 04:44:13;;;;;;;28.25;21.45;;;4.50;99.90;;;;;;5050419;28;20421;-63
2023/04/15 04:46:40;;;;;;;29.77;21.85;;;4.50;99.90;;;;;;5051273;28;20467;-63
2023/04/15 04:49:06;;;;;;;28.52;21.85;;;4.50;99.90;;;;;;5054090;28;20463;-63
2023/04/15 04:51:35;;;;;;;28.50;22.17;;;4.50;99.90;;;;;;5053617;28;20409;-63
2023/04/15 04:54:02;;;;;;;30.38;22.25;;;4.50;99.90;;;;;;5054191;28;20483;-63
2023/04/15 04:56:28;;;;;;;32.03;22.67;;;4.50;99.90;;;;;;5050018;28;20424;-63
2023/04/15 04:58:55;;;;;;;30.23;22.58;;;4.40;99.90;;;;;;5052258;28;20413;-62
2023/04/15 05:01:22;;;;;;;30.77;23.40;;;4.40;99.90;;;;;;5049320;28;20462;-64
2023/04/15 05:03:48;;;;;;;31.42;22.92;;;4.40;99.90;;;;;;5052803;28;20429;-63
2023/04/15 05:06:15;;;;;;;29.00;23.08;;;4.40;99.90;;;;;;5052051;28;20462;-64
2023/04/15 05:08:43;;;;;;;30.60;22.83;;;4.40;99.90;;;;;;5051563;28;21081;-63
2023/04/15 05:11:10;;;;;;;29.98;22.67;;;4.40;99.90;;;;;;5047191;28;20440;-63
2023/04/15 05:13:37;;;;;;;29.35;22.75;;;4.40;99.90;;;;;;5048096;28;20418;-63
2023/04/15 05:16:04;;;;;;;32.17;22.77;;;4.50;99.90;;;;;;5048192;28;20761;-63
2023/04/15 05:18:31;;;;;;;28.85;21.73;;;4.60;99.90;;;;;;5052082;28;20467;-64
2023/04/15 05:20:58;;;;;;;29.53;22.50;;;4.60;99.90;;;;;;5052403;28;20413;-63
2023/04/15 05:23:25;;;;;;;29.23;21.83;;;4.50;99.90;;;;;;5051758;28;20421;-63
2023/04/15 05:25:52;;;;;;;28.80;21.88;;;4.50;99.90;;;;;;5044070;28;20421;-64
2023/04/15 05:28:20;;;;;;;27.05;20.95;;;4.50;99.90;;;;;;5051992;28;20812;-64
2023/04/15 05:30:46;;;;;;;29.95;23.10;;;4.50;99.90;;;;;;5048847;28;20421;-63
2023/04/15 05:33:13;;;;;;;28.10;21.38;;;4.60;99.90;;;;;;5050952;28;20892;-63
2023/04/15 05:35:40;;;;;;;29.60;22.17;;;4.50;99.90;;;;;;5051580;28;20458;-63
2023/04/15 05:38:07;;;;;;;28.52;21.88;;;4.60;99.90;;;;;;5051451;28;20460;-63
2023/04/15 05:40:33;;;;;;;27.85;21.73;;;4.70;99.90;;;;;;5047318;28;20453;-64
2023/04/15 05:43:01;;;;;;;31.98;21.75;;;4.70;99.90;;;;;;5051668;28;20413;-64
2023/04/15 05:45:28;;;;;;;27.45;22.13;;;4.70;99.90;;;;;;5047032;28;20460;-63
2023/04/15 05:47:55;;;;;;;29.08;22.95;;;4.80;99.90;;;;;;5051281;28;20467;-62
2023/04/15 05:50:21;;;;;;;29.58;21.00;;;4.80;99.90;;;;;;5051367;28;20418;-65
2023/04/15 05:52:48;;;;;;;26.83;20.73;;;4.80;99.90;;;;;;5051601;28;20414;-63
2023/04/15 05:55:15;;;;;;;25.65;20.00;;;4.90;99.90;;;;;;5047396;28;20417;-65
2023/04/15 05:57:41;;;;;;;29.15;21.52;;;4.90;99.90;;;;;;5052140;28;20452;-63
2023/04/15 06:00:11;;;;;;;27.55;22.40;;;4.90;99.90;;;;;;5046970;28;20432;-63
2023/04/15 06:02:37;;;;;;;28.95;21.98;;;5.00;99.90;;;;;;5051298;28;20840;-63
2023/04/15 06:05:08;;;;;;;29.80;21.85;;;5.00;99.90;;;;;;5051811;28;20423;-63
2023/04/15 06:07:35;;;;;;;31.17;21.60;;;5.00;99.90;;;;;;5048813;28;20437;-62
2023/04/15 06:10:02;;;;;;;25.98;22.58;;;5.10;99.90;;;;;;5046721;28;20479;-62
2023/04/15 06:12:28;;;;;;;27.50;22.08;;;5.20;99.90;;;;;;5051525;28;20467;-62
2023/04/15 06:14:55;;;;;;;28.65;23.30;;;5.30;99.90;;;;;;5042803;28;20423;-61
2023/04/15 06:17:24;;;;;;;27.42;22.92;;;5.30;99.90;;;;;;5051234;28;20423;-62
2023/04/15 06:19:54;;;;;;;29.13;23.40;;;5.40;99.90;;;;;;5053746;28;20503;-61
2023/04/15 06:22:21;;;;;;;30.10;24.90;;;5.50;99.90;;;;;;5052808;28;20421;-62
2023/04/15 06:24:48;;;;;;;30.80;25.00;;;5.50;99.90;;;;;;5049946;28;20425;-62
2023/04/15 06:27:15;;;;;;;28.83;24.17;;;5.60;99.90;;;;;;5052371;28;20964;-62
2023/04/15 06:29:41;;;;;;;32.63;25.20;;;5.60;99.90;;;;;;5054431;28;20467;-61
2023/04/15 06:32:08;;;;;;;32.22;25.23;;;5.70;99.90;;;;;;5050971;28;20823;-62
2023/04/15 06:34:36;;;;;;;29.60;24.15;;;5.80;99.90;;;;;;5057771;28;20413;-62
2023/04/15 06:37:02;;;;;;;29.85;25.23;;;5.90;99.90;;;;;;5050932;28;20413;-62
2023/04/15 06:39:29;;;;;;;29.83;25.05;;;4.20;99.90;;;;;;5051031;28;20410;-62
2023/04/15 06:41:56;;;;;;;28.52;24.80;;;6.00;99.90;;;;;;5046916;28;20448;-61
2023/04/15 06:44:23;;;;;;;28.40;23.48;;;6.00;99.90;;;;;;5047459;28;20457;-62
2023/04/15 06:46:49;;;;;;;28.33;22.40;;;6.10;99.90;;;;;;5048791;28;20507;-62
2023/04/15 06:49:16;;;;;;;26.35;21.90;;;6.10;99.90;;;;;;5046841;28;20435;-61
2023/04/15 06:51:44;;;;;;;27.48;20.60;;;6.10;99.90;;;;;;5050394;28;21226;-62
2023/04/15 06:54:11;;;;;;;28.27;20.98;;;6.10;99.90;;;;;;5050622;28;20413;-62
2023/04/15 06:56:38;;;;;;;26.20;20.67;;;6.20;99.90;;;;;;5049791;28;20908;-61
2023/04/15 06:59:04;;;;;;;25.47;21.77;;;6.20;99.90;;;;;;5049324;28;20555;-61
2023/04/15 07:01:31;;;;;;;24.52;20.95;;;6.30;99.90;;;;;;5046336;28;20426;-62
2023/04/15 07:03:57;;;;;;;24.48;19.95;;;6.40;99.90;;;;;;5050714;28;20475;-62
2023/04/15 07:06:24;;;;;;;26.70;20.30;;;6.50;99.90;;;;;;5050411;28;20413;-61
2023/04/15 07:08:53;;;;;;;24.55;19.80;;;6.50;99.90;;;;;;5049667;28;20457;-61
2023/04/15 07:11:19;;;;;;;25.45;19.52;;;6.50;99.90;;;;;;5046848;28;20473;-62
2023/04/15 07:13:46;;;;;;;23.75;18.67;;;6.70;99.90;;;;;;5050385;28;20457;-60
2023/04/15 07:16:13;;;;;;;26.75;18.48;;;6.80;99.90;;;;;;5045745;28;20428;-62
2023/04/15 07:18:39;;;;;;;23.40;18.85;;;6.90;99.90;;;;;;5043101;28;20467;-62
2023/04/15 07:21:06;;;;;;;24.75;19.52;;;6.90;99.90;;;;;;5050299;28;20452;-62
2023/04/15 07:23:33;;;;;;;21.77;18.00;;;7.00;99.90;;;;;;5050342;28;20459;-61
2023/04/15 07:26:01;;;;;;;21.80;18.13;;;7.00;99.90;;;;;;5050211;28;20467;-62
2023/04/15 07:28:27;;;;;;;24.88;18.52;;;7.10;99.90;;;;;;5045492;28;20424;-63
2023/04/15 07:30:55;;;;;;;22.40;17.77;;;7.30;99.90;;;;;;5042520;28;20885;-63
2023/04/15 07:33:22;;;;;;;21.60;17.05;;;7.40;99.90;;;;;;5050285;28;20545;-63
2023/04/15 07:35:49;;;;;;;20.05;16.17;;;7.40;99.90;;;;;;5050423;28;20409;-61
2023/04/15 07:38:16;;;;;;;20.42;15.70;;;7.50;99.90;;;;;;5050060;28;20409;-63
2023/04/15 07:40:42;;;;;;;20.20;15.98;;;7.70;99.90;;;;;;5045777;28;20445;-63
2023/04/15 07:43:12;;;;;;;21.92;15.88;;;7.70;99.90;;;;;;5046358;28;20467;-62
2023/04/15 07:45:38;;;;;;;19.58;15.95;;;7.80;99.90;;;;;;5049845;28;20943;-62
2023/04/15 07:48:07;;;;;;;20.35;15.45;;;7.80;99.90;;;;;;5045640;28;20471;-61
2023/04/15 07:50:33;;;;;;;20.85;15.68;;;8.00;99.90;;;;;;5049955;28;20792;-62
2023/04/15 07:53:00;;;;;;;17.70;13.65;;;8.10;99.90;;;;;;5050127;28;20471;-63
2023/04/15 07:55:27;;;;;;;16.80;13.57;;;8.30;99.90;;;;;;5049860;28;20485;-62
2023/04/15 07:57:53;;;;;;;18.00;13.05;;;8.20;99.90;;;;;;5047682;28;20417;-62
2023/04/15 08:00:22;;;;;;;18.17;14.15;;;8.40;99.90;;;;;;5049199;28;20425;-63
2023/04/15 08:02:51;;;;;;;17.33;13.30;;;8.40;99.90;;;;;;5052853;28;20598;-63
2023/04/15 08:05:18;;;;;;;12.98;10.45;;;8.50;99.90;;;;;;5053493;28;20518;-63
2023/04/15 08:07:45;;;;;;;12.52;10.18;;;8.60;79.60;;;;;;5053077;28;20883;-63
2023/04/15 08:10:12;;;;;;;10.98;9.02;;;8.60;79.10;;;;;;5049464;28;20425;-63
2023/04/15 08:12:38;;;;;;;10.20;9.10;;;8.80;37.50;;;;;;5053833;28;20409;-63
2023/04/15 08:15:06;;;;;;;12.35;9.00;;;8.90;12.20;;;;;;5049550;28;20418;-64
2023/04/15 08:17:34;;;;;;;12.23;9.25;;;8.70;14.30;;;;;;5053248;28;20506;-63
2023/04/15 08:20:01;;;;;;;11.57;9.23;;;8.60;33.30;;;;;;5053606;28;20461;-64
2023/04/15 08:22:28;;;;;;;10.65;9.15;;;8.70;37.50;;;;;;5053017;28;20985;-63
2023/04/15 08:24:55;;;;;;;10.82;8.50;;;8.70;23.30;;;;;;5048712;28;20430;-64
2023/04/15 08:27:22;;;;;;;10.93;8.65;;;8.80;11.70;;;;;;5052888;28;20459;-63
2023/04/15 08:29:48;;;;;;;11.73;9.38;;;8.90;1.00;;;;;;5044967;28;20901;-63
2023/04/15 08:32:15;;;;;;;11.52;9.00;;;9.20;1.00;;;;;;5053141;28;20417;-64
2023/04/15 08:34:43;;;;;;;9.77;8.10;;;9.30;1.00;;;;;;5053102;28;20417;-63
2023/04/15 08:37:10;;;;;;;9.02;7.32;;;9.60;1.00;;;;;;5052642;28;20413;-63
2023/04/15 08:39:36;;;;;;;10.70;7.90;;;9.60;1.00;;;;;;5048335;28;20901;-63
2023/04/15 08:42:06;;;;;;;10.25;8.65;;;9.40;1.00;;;;;;5049140;28;20791;-63
2023/04/15 08:44:35;;;;;;;9.68;8.38;;;9.50;1.00;;;;;;5048781;28;20514;-62
2023/04/15 08:47:04;;;;;;;9.55;8.20;;;9.60;1.00;;;;;;5048712;28;20449;-64
2023/04/15 08:49:32;;;;;;;10.15;8.15;;;9.70;1.00;;;;;;5052506;28;20982;-63
2023/04/15 08:52:01;;;;;;;9.93;7.90;;;9.70;1.00;;;;;;5052419;28;20896;-62
2023/04/15 08:54:28;;;;;;;9.40;7.80;;;9.50;1.00;;;;;;5049065;28;20427;-63
2023/04/15 08:56:55;;;;;;;9.15;7.47;;;9.40;1.00;;;;;;5051640;28;20463;-62
2023/04/15 08:59:21;;;;;;;10.43;7.63;;;9.20;1.00;;;;;;5050109;28;20417;-63
2023/04/15 09:01:49;;;;;;;8.85;7.28;;;9.20;1.00;;;;;;5050843;28;20409;-63
2023/04/15 09:04:17;;;;;;;12.02;8.00;;;9.20;1.00;;;;;;5050022;28;20427;-64
2023/04/15 09:06:44;;;;;;;8.45;6.50;;;9.30;1.00;;;;;;5052704;28;20421;-64
2023/04/15 09:09:13;;;;;;;8.75;6.85;;;9.60;1.00;;;;;;5049440;28;20417;-63
2023/04/15 09:11:39;;;;;;;7.20;5.80;;;9.60;1.00;;;;;;5049920;28;20850;-63
2023/04/15 09:14:06;;;;;;;6.93;5.00;;;9.70;1.00;;;;;;5051050;28;20911;-63
2023/04/15 09:16:57;;;;;;;6.30;5.43;;;9.60;1.00;;;;;;5048746;28;20461;-63
2023/04/15 09:19:25;;;;;;;8.53;6.50;;;9.30;1.00;;;;;;5037301;28;20409;-66
2023/04/15 09:21:53;;;;;;;7.07;6.20;;;9.30;1.00;;;;;;5048608;28;20413;-64
2023/04/15 09:24:20;;;;;;;7.18;5.82;;;9.40;1.00;;;;;;5046835;28;21086;-65
2023/04/15 09:26:47;;;;;;;6.65;5.72;;;9.60;1.00;;;;;;5049229;28;20472;-65
2023/04/15 09:29:14;;;;;;;7.00;5.23;;;9.70;1.00;;;;;;5044103;28;20423;-62
2023/04/15 09:31:41;;;;;;;5.65;5.05;;;9.80;1.00;;;;;;5050710;28;20423;-65
2023/04/15 09:34:09;;;;;;;5.97;5.38;;;9.70;1.00;;;;;;5052009;28;20449;-63
2023/04/15 09:36:52;;;;;;;7.10;6.40;;;9.70;1.00;;;;;;5048742;28;20550;-64
2023/04/15 09:39:19;;;;;;;6.60;5.70;;;9.60;1.00;;;;;;5050878;28;20421;-66
2023/04/15 09:41:46;;;;;;;7.65;6.43;;;9.20;4.70;;;;;;5048764;28;20496;-65
2023/04/15 09:44:23;;;;;;;7.97;6.80;;;9.40;29.70;;;;;;5049138;28;20554;-65
2023/04/15 09:46:49;;;;;;;7.38;6.32;;;9.50;32.50;;;;;;5051283;28;20414;-67
2023/04/15 09:49:18;;;;;;;7.22;6.38;;;9.70;5.30;;;;;;5050792;28;20420;-66
2023/04/15 09:51:45;;;;;;;7.80;6.57;;;9.70;3.10;;;;;;5053643;28;20474;-66
2023/04/15 09:54:11;;;;;;;8.20;7.20;;;9.80;1.90;;;;;;5058451;28;20413;-66
2023/04/15 09:56:40;;;;;;;7.53;6.20;;;9.60;1.00;;;;;;5051625;28;20476;-68
2023/04/15 09:59:08;;;;;;;8.43;7.53;;;9.50;5.80;;;;;;5043762;28;20461;-67
2023/04/15 10:01:34;;;;;;;8.18;7.05;;;9.50;18.80;;;;;;5054820;28;20420;-66
2023/04/15 10:04:03;;;;;;;9.45;8.32;;;9.50;27.20;;;;;;5054774;28;20417;-68
2023/04/15 10:06:31;;;;;;;8.50;7.60;;;9.50;32.20;;;;;;5053420;28;20907;-66
2023/04/15 10:08:58;;;;;;;8.38;7.47;;;9.40;29.20;;;;;;5055773;28;20413;-67
2023/04/15 10:11:29;;;;;;;9.90;7.50;;;9.50;39.30;;;;;;5067021;28;20475;-68
2023/04/15 10:13:56;;;;;;;8.77;7.30;;;9.40;30.80;;;;;;5060903;28;20833;-68
2023/04/15 10:16:27;;;;;;;8.07;6.57;;;9.60;36.30;;;;;;5047044;28;20406;-67
2023/04/15 10:18:56;;;;;;;8.00;7.20;;;9.60;13.30;;;;;;5048786;28;20985;-67
2023/04/15 10:21:23;;;;;;;7.95;7.13;;;9.80;36.60;;;;;;5050774;28;20887;-63
2023/04/15 10:23:51;;;;;;;9.50;7.50;;;9.60;1.60;;;;;;5051122;28;20487;-66
2023/04/15 10:26:18;;;;;;;8.23;7.40;;;9.70;24.50;;;;;;5046511;28;20421;-66
2023/04/15 10:28:47;;;;;;;7.80;6.63;;;10.00;39.60;;;;;;5045608;28;20491;-63
2023/04/15 10:31:14;;;;;;;8.35;7.15;;;10.20;1.00;;;;;;5047987;28;20842;-65
2023/04/15 10:33:42;;;;;;;6.72;6.03;;;10.20;1.00;;;;;;5051637;28;20417;-66
2023/04/15 10:36:09;;;;;;;7.32;5.90;;;10.40;1.00;;;;;;5049868;28;20410;-67
2023/04/15 10:38:37;;;;;;;7.95;6.32;;;10.10;1.00;;;;;;5049888;28;20888;-67
2023/04/15 10:41:17;;;;;;;7.40;5.63;;;10.30;1.00;;;;;;5041716;28;20429;-66
2023/04/15 10:43:49;;;;;;;6.30;5.50;;;10.60;1.00;;;;;;5045900;28;20505;-66
2023/04/15 10:46:19;;;;;;;6.82;5.40;;;10.40;1.00;;;;;;5044981;28;20504;-65
2023/04/15 10:48:50;;;;;;;7.05;5.40;;;10.10;1.00;;;;;;5049744;28;20417;-64
2023/04/15 10:51:26;;;;;;;7.05;4.93;;;10.30;1.00;;;;;;5047746;28;20470;-68
2023/04/15 10:53:56;;;;;;;5.95;5.22;;;10.10;1.00;;;;;;5046408;28;20912;-67
2023/04/15 10:56:24;;;;;;;7.30;6.07;;;9.10;1.00;;;;;;5050999;28;20550;-68
2023/04/15 10:58:51;;;;;;;7.30;6.18;;;10.40;1.00;;;;;;5049385;28;20413;-67
2023/04/15 11:01:21;;;;;;;8.80;6.20;;;10.50;1.00;;;;;;5045464;28;20421;-67
2023/04/15 11:03:48;;;;;;;7.33;6.50;;;10.40;1.00;;;;;;5051926;28;20800;-64
2023/04/15 11:06:15;;;;;;;8.73;6.65;;;10.30;1.00;;;;;;5049389;28;20421;-66
2023/04/15 11:08:57;;;;;;;8.50;7.07;;;10.10;1.00;;;;;;5050025;28;20452;-66
2023/04/15 11:12:05;;;;;;;9.30;7.37;;;10.00;1.00;;;;;;5047382;28;20477;-65
2023/04/15 11:14:33;;;;;;;7.93;7.13;;;9.70;4.90;;;;;;5045521;28;20419;-66
2023/04/15 11:17:00;;;;;;;8.63;7.05;;;9.70;25.00;;;;;;5051329;28;20844;-64
2023/04/15 11:19:27;;;;;;;6.25;5.28;;;9.70;18.00;;;;;;5052262;28;20444;-64
2023/04/15 11:21:53;;;;;;;9.40;8.32;;;9.30;29.60;;;;;;5053194;28;20417;-66
2023/04/15 11:24:26;;;;;;;9.35;7.85;;;9.20;64.40;;;;;;5055190;28;20901;-65
2023/04/15 11:26:58;;;;;;;10.18;8.40;;;9.30;71.80;;;;;;5054271;28;20425;-64
2023/04/15 11:29:30;;;;;;;9.32;7.35;;;9.40;63.70;;;;;;5045790;28;20477;-66
2023/04/15 11:32:04;;;;;;;9.70;7.43;;;9.90;51.80;;;;;;5053707;28;20419;-66
2023/04/15 11:34:32;;;;;;;8.55;7.18;;;9.60;34.70;;;;;;5057331;28;20420;-66
2023/04/15 11:36:59;;;;;;;9.13;7.60;;;9.50;55.10;;;;;;5051943;28;20447;-66
2023/04/15 11:39:25;;;;;;;9.45;7.40;;;9.60;50.00;;;;;;5051432;28;20418;-66
2023/04/15 11:41:52;;;;;;;8.40;7.33;;;9.60;25.00;;;;;;5058520;28;20471;-67
2023/04/15 11:44:20;;;;;;;9.70;8.45;;;9.40;42.40;;;;;;5056755;28;20874;-64
2023/04/15 11:46:46;;;;;;;9.55;8.00;;;9.20;72.90;;;;;;5052435;28;20429;-65
2023/04/15 11:49:26;;;;;;;9.50;8.07;;;9.30;82.30;;;;;;5052978;28;20512;-65
2023/04/15 11:51:53;;;;;;;9.43;7.13;;;9.60;70.10;;;;;;5053293;28;20702;-65
2023/04/15 11:54:19;;;;;;;8.95;7.47;;;9.60;45.10;;;;;;5051540;28;20433;-65
2023/04/15 11:56:50;;;;;;;10.25;7.18;;;9.80;37.80;;;;;;5056156;28;20416;-64
2023/04/15 11:59:17;;;;;;;8.07;6.72;;;9.50;29.70;;;;;;5050810;28;20457;-65
2023/04/15 12:01:46;;;;;;;7.90;6.47;;;9.80;14.00;;;;;;5051650;28;20421;-64
2023/04/15 12:04:13;;;;;;;7.45;6.40;;;9.90;15.20;;;;;;5049828;28;20492;-65
2023/04/15 12:06:40;;;;;;;7.30;6.07;;;9.90;4.20;;;;;;5053094;28;20422;-64
2023/04/15 12:09:12;;;;;;;7.70;6.67;;;9.80;6.10;;;;;;5051734;28;20416;-63
2023/04/15 12:11:44;;;;;;;7.90;6.20;;;9.80;1.00;;;;;;5043700;28;20449;-65
2023/04/15 12:14:21;;;;;;;8.07;6.28;;;9.70;8.00;;;;;;5049239;28;20470;-65
2023/04/15 12:16:52;;;;;;;9.02;6.78;;;9.70;6.80;;;;;;5048981;28;20496;-65
2023/04/15 12:19:24;;;;;;;7.72;6.30;;;9.80;19.30;;;;;;5052611;28;20418;-65
2023/04/15 12:21:50;;;;;;;8.57;6.40;;;10.00;1.00;;;;;;5049881;28;20504;-64
2023/04/15 12:24:21;;;;;;;8.07;6.57;;;9.80;4.20;;;;;;5051813;28;20413;-66
2023/04/15 12:26:49;;;;;;;8.33;7.00;;;9.90;6.80;;;;;;5048169;28;20900;-63
2023/04/15 12:29:17;;;;;;;7.70;6.63;;;9.90;1.00;;;;;;5049698;28;20821;-62
2023/04/15 12:31:51;;;;;;;9.25;7.30;;;9.80;7.60;;;;;;5051833;28;21157;-64
2023/04/15 12:34:18;;;;;;;10.00;7.50;;;9.60;10.10;;;;;;5052741;28;20768;-65
2023/04/15 12:36:45;;;;;;;9.05;7.88;;;9.70;5.50;;;;;;5052053;28;20520;-63
2023/04/15 12:39:12;;;;;;;9.77;7.57;;;9.60;31.50;;;;;;5051227;28;20431;-67
2023/04/15 12:41:39;;;;;;;10.20;7.55;;;9.70;55.70;;;;;;5048764;28;20418;-67
2023/04/15 12:44:06;;;;;;;10.55;8.43;;;9.80;51.60;;;;;;5051433;28;20956;-67
2023/04/15 12:46:33;;;;;;;9.15;7.57;;;9.70;49.30;;;;;;5048255;28;20974;-66
2023/04/15 12:49:01;;;;;;;8.30;7.20;;;9.90;26.00;;;;;;5051422;28;20916;-66
2023/04/15 12:51:28;;;;;;;8.38;7.30;;;9.80;48.50;;;;;;5051867;28;20441;-66